Time;durP1;ratioP1;P1;durP2;ratioP2;P2;SDS_P1;SDS_P2;PMS_P1;PMS_P2;Temp;Humidity;BMP_temperature;BMP_pressure;BME280_temperature;BME280_humidity;BME280_pressure;Samples;Min_cycle;Max_cycle;Signal;HPM_P1;HPM_P2
2023/04/09 00:00:44;;;;;;;11.00;7.10;;;;;;;10.43;69.91;101216.38;1771363;80;21568;-60
2023/04/09 00:03:51;;;;;;;13.22;7.47;;;;;;;10.45;70.06;101213.83;1771155;80;21188;-60
2023/04/09 00:06:57;;;;;;;12.95;7.12;;;;;;;10.49;70.12;101211.16;1771066;80;21226;-59
2023/04/09 00:10:03;;;;;;;10.63;7.08;;;;;;;10.53;70.15;101205.70;1771724;79;21189;-61
2023/04/09 00:13:09;;;;;;;12.10;7.60;;;;;;;10.58;70.21;101208.50;1770204;80;21218;-59
2023/04/09 00:16:16;;;;;;;11.22;7.25;;;;;;;10.61;70.21;101213.66;1735806;82;21223;-59
2023/04/09 00:19:23;;;;;;;11.30;7.45;;;;;;;10.63;70.24;101212.97;1722413;83;21193;-61
2023/04/09 00:22:29;;;;;;;14.18;7.40;;;;;;;10.64;70.28;101205.97;1720115;82;21304;-60
2023/04/09 00:25:34;;;;;;;12.93;7.47;;;;;;;10.68;70.28;101203.29;1770762;81;21240;-59
2023/04/09 00:28:40;;;;;;;9.45;6.22;;;;;;;10.68;70.29;101203.79;1771265;80;21209;-59
2023/04/09 00:31:46;;;;;;;12.68;7.45;;;;;;;10.70;70.37;101201.27;1771144;80;21579;-59
2023/04/09 00:34:52;;;;;;;11.55;7.12;;;;;;;10.73;70.42;101196.84;1771233;80;21237;-61
2023/04/09 00:37:58;;;;;;;10.50;6.45;;;;;;;10.77;70.49;101201.47;1771036;80;21209;-60
2023/04/09 00:41:06;;;;;;;12.55;6.60;;;;;;;10.79;70.52;101193.47;1770829;80;21347;-60
2023/04/09 00:44:12;;;;;;;11.03;6.90;;;;;;;10.81;70.50;101195.55;1771018;81;21220;-60
2023/04/09 00:47:19;;;;;;;11.45;6.55;;;;;;;10.83;70.50;101198.12;1771260;80;21699;-60
2023/04/09 00:50:25;;;;;;;9.05;6.87;;;;;;;10.84;70.53;101201.20;1770994;80;21193;-61
2023/04/09 00:53:31;;;;;;;10.98;7.00;;;;;;;10.86;70.54;101202.75;1771769;80;21241;-60
2023/04/09 00:56:37;;;;;;;27.00;15.83;;;;;;;10.86;70.46;101200.02;1771052;80;21342;-61
2023/04/09 00:59:45;;;;;;;16.57;8.33;;;;;;;10.87;70.50;101203.13;1772439;80;21371;-60
2023/04/09 01:02:52;;;;;;;9.95;7.20;;;;;;;10.87;70.52;101203.13;1770841;80;21276;-60
2023/04/09 01:06:22;;;;;;;9.65;6.60;;;;;;;10.88;70.54;101212.22;1770852;80;21296;-61
2023/04/09 01:09:42;;;;;;;11.68;6.10;;;;;;;10.89;70.57;101209.81;1771202;80;21339;-60
2023/04/09 01:13:27;;;;;;;11.25;6.03;;;;;;;10.90;70.59;101218.38;1771087;80;21213;-60
2023/04/09 01:16:33;;;;;;;8.78;5.78;;;;;;;10.92;70.56;101223.20;1772065;77;21189;-60
2023/04/09 01:19:58;;;;;;;8.60;6.08;;;;;;;10.92;70.63;101226.80;1771136;81;21228;-60
2023/04/09 01:23:25;;;;;;;9.20;6.00;;;;;;;10.94;70.68;101226.11;1771686;79;21374;-60
2023/04/09 01:26:45;;;;;;;8.68;6.03;;;;;;;10.95;70.69;101231.97;1771355;80;21429;-59
2023/04/09 01:29:54;;;;;;;8.88;6.22;;;;;;;10.95;70.66;101231.09;1770889;80;21166;-60
2023/04/09 01:33:00;;;;;;;11.05;6.42;;;;;;;10.93;70.63;101231.75;1771179;79;21272;-60
2023/04/09 01:36:07;;;;;;;9.10;6.22;;;;;;;10.92;70.58;101226.80;1771280;80;21204;-61
2023/04/09 01:39:14;;;;;;;11.73;6.40;;;;;;;10.90;70.58;101232.07;1771155;81;21171;-61
2023/04/09 01:42:19;;;;;;;11.75;6.08;;;;;;;10.89;70.53;101234.47;1770876;80;21352;-61
2023/04/09 01:45:26;;;;;;;9.83;6.28;;;;;;;10.85;70.46;101238.02;1770807;80;21725;-61
2023/04/09 01:48:33;;;;;;;10.55;6.45;;;;;;;10.81;70.40;101232.52;1771319;80;21183;-60
2023/04/09 01:51:40;;;;;;;10.48;6.15;;;;;;;10.76;70.35;101233.49;1770833;80;21225;-61
2023/04/09 01:54:45;;;;;;;10.75;5.95;;;;;;;10.71;70.41;101222.64;1771137;80;21332;-61
2023/04/09 01:57:53;;;;;;;9.68;6.00;;;;;;;10.67;70.45;101228.09;1771240;80;21382;-60
2023/04/09 02:00:58;;;;;;;12.65;7.00;;;;;;;10.62;70.44;101225.83;1762376;80;21236;-59
2023/04/09 02:04:11;;;;;;;9.93;6.53;;;;;;;10.54;70.39;101225.21;1771524;80;21174;-60
2023/04/09 02:07:31;;;;;;;10.32;6.37;;;;;;;10.46;70.36;101222.91;1771790;80;21398;-60
2023/04/09 02:10:38;;;;;;;9.40;6.17;;;;;;;10.40;70.42;101229.02;1771304;79;21390;-60
2023/04/09 02:13:44;;;;;;;12.10;6.47;;;;;;;10.35;70.50;101225.88;1764363;79;21153;-61
2023/04/09 02:16:50;;;;;;;9.95;6.25;;;;;;;10.30;70.52;101229.08;1770905;79;21507;-59
2023/04/09 02:19:57;;;;;;;9.48;6.10;;;;;;;10.25;70.57;101228.67;1771899;80;21801;-61
2023/04/09 02:23:02;;;;;;;12.50;6.50;;;;;;;10.21;70.57;101223.13;1771065;80;21221;-61
2023/04/09 02:26:07;;;;;;;12.03;6.87;;;;;;;10.18;70.60;101235.75;1771058;80;21199;-60
2023/04/09 02:29:15;;;;;;;8.85;6.40;;;;;;;10.14;70.57;101231.61;1770928;80;21316;-60
2023/04/09 02:32:21;;;;;;;11.75;6.83;;;;;;;10.09;70.57;101232.57;1771725;80;21604;-60
2023/04/09 02:35:28;;;;;;;10.88;5.50;;;;;;;10.04;70.50;101225.28;1771893;80;21173;-60
2023/04/09 02:38:35;;;;;;;10.95;6.87;;;;;;;9.99;70.58;101232.24;1770931;81;21209;-60
2023/04/09 02:41:43;;;;;;;12.70;7.20;;;;;;;9.97;70.71;101234.26;1760680;80;21327;-60
2023/04/09 02:44:51;;;;;;;10.65;6.65;;;;;;;9.94;70.77;101229.94;1770982;80;21240;-61
2023/04/09 02:47:57;;;;;;;8.73;6.92;;;;;;;9.92;70.82;101231.98;1770744;80;21224;-60
2023/04/09 02:51:07;;;;;;;13.62;7.20;;;;;;;9.91;70.88;101234.88;1771443;80;21205;-60
2023/04/09 02:54:13;;;;;;;15.23;6.95;;;;;;;9.89;70.86;101239.12;1770733;80;21244;-60
2023/04/09 02:57:19;;;;;;;13.48;6.87;;;;;;;9.88;70.82;101237.37;1770831;80;21181;-60
2023/04/09 03:00:25;;;;;;;11.53;7.65;;;;;;;9.88;70.81;101239.24;1771252;80;21366;-61
2023/04/09 03:03:32;;;;;;;14.75;7.58;;;;;;;9.88;70.84;101237.88;1764119;80;21213;-61
2023/04/09 03:06:40;;;;;;;11.50;7.42;;;;;;;9.88;70.87;101230.55;1771508;80;21202;-61
2023/04/09 03:09:46;;;;;;;11.28;7.25;;;;;;;9.89;70.86;101239.63;1771422;79;21189;-61
2023/04/09 03:12:53;;;;;;;11.30;7.15;;;;;;;9.90;70.91;101231.77;1771176;80;21757;-61
2023/04/09 03:15:59;;;;;;;11.25;6.78;;;;;;;9.92;70.98;101233.34;1771185;80;21205;-61
2023/04/09 03:19:06;;;;;;;13.88;7.35;;;;;;;9.94;70.95;101229.94;1770910;80;21346;-60
2023/04/09 03:22:12;;;;;;;13.20;7.03;;;;;;;9.94;70.85;101229.09;1771045;80;21193;-60
2023/04/09 03:25:19;;;;;;;10.58;7.03;;;;;;;9.95;70.85;101231.67;1770899;81;21178;-61
2023/04/09 03:28:27;;;;;;;16.42;8.00;;;;;;;9.97;70.89;101238.36;1771537;80;21169;-60
2023/04/09 03:31:33;;;;;;;14.18;7.87;;;;;;;9.97;70.89;101239.73;1771209;80;21331;-60
2023/04/09 03:34:40;;;;;;;12.05;7.95;;;;;;;9.95;70.85;101230.31;1771966;80;21182;-61
2023/04/09 03:37:47;;;;;;;10.88;7.22;;;;;;;9.94;70.86;101234.04;1770823;80;21296;-62
2023/04/09 03:40:53;;;;;;;10.23;7.83;;;;;;;9.92;70.88;101233.84;1770951;80;21201;-61
2023/04/09 03:44:00;;;;;;;13.35;8.28;;;;;;;9.91;70.89;101229.41;1771287;80;21193;-60
2023/04/09 03:47:10;;;;;;;16.20;8.03;;;;;;;9.88;70.79;101233.28;1771317;80;21202;-61
2023/04/09 03:50:19;;;;;;;14.40;8.85;;;;;;;9.86;70.87;101236.66;1771183;81;21193;-60
2023/04/09 03:53:25;;;;;;;12.93;7.87;;;;;;;9.85;70.88;101236.32;1771036;80;21193;-60
2023/04/09 03:56:33;;;;;;;16.60;8.68;;;;;;;9.86;70.90;101237.19;1770859;80;21212;-60
2023/04/09 03:59:41;;;;;;;15.23;8.73;;;;;;;9.89;70.97;101234.16;1771432;80;21248;-61
2023/04/09 04:02:48;;;;;;;13.18;9.55;;;;;;;9.91;70.99;101237.61;1771036;79;21200;-60
2023/04/09 04:06:00;;;;;;;18.12;10.55;;;;;;;9.94;71.03;101238.14;1770323;80;21245;-61
2023/04/09 04:09:25;;;;;;;15.83;9.80;;;;;;;10.01;71.07;101243.37;1771679;80;21378;-60
2023/04/09 04:12:35;;;;;;;13.80;9.68;;;;;;;10.08;71.11;101243.17;1771061;80;21367;-59
2023/04/09 04:15:50;;;;;;;16.62;10.15;;;;;;;10.14;71.13;101246.66;1770863;80;21208;-60
2023/04/09 04:18:57;;;;;;;18.17;9.83;;;;;;;10.22;71.12;101244.03;1770938;80;21200;-61
2023/04/09 04:22:04;;;;;;;14.23;9.18;;;;;;;10.29;71.16;101246.48;1771041;80;21185;-60
2023/04/09 04:25:12;;;;;;;11.40;8.08;;;;;;;10.35;71.14;101251.34;1771844;80;21190;-60
2023/04/09 04:28:19;;;;;;;14.70;9.23;;;;;;;10.39;71.10;101250.04;1771502;81;21170;-61
2023/04/09 04:31:27;;;;;;;17.50;8.10;;;;;;;10.45;71.11;101255.39;1771355;80;21405;-61
2023/04/09 04:34:34;;;;;;;16.70;8.55;;;;;;;10.51;71.13;101252.91;1771218;80;21374;-61
2023/04/09 04:37:42;;;;;;;20.95;9.55;;;;;;;10.56;71.10;101252.44;1771594;80;21311;-61
2023/04/09 04:40:50;;;;;;;13.40;8.73;;;;;;;10.62;71.10;101250.97;1771235;80;21162;-60
2023/04/09 04:43:56;;;;;;;15.50;8.48;;;;;;;10.64;71.08;101261.27;1771433;81;21659;-61
2023/04/09 04:47:05;;;;;;;19.12;8.98;;;;;;;10.70;71.19;101263.38;1764302;81;21272;-60
2023/04/09 04:50:12;;;;;;;13.80;9.48;;;;;;;10.77;71.24;101263.09;1771495;81;21157;-61
2023/04/09 04:53:24;;;;;;;15.40;9.03;;;;;;;10.84;71.33;101261.47;1771171;79;21361;-61
2023/04/09 04:56:34;;;;;;;13.03;8.70;;;;;;;10.88;71.31;101262.89;1771714;80;21181;-60
2023/04/09 04:59:57;;;;;;;11.70;8.18;;;;;;;10.96;71.34;101266.55;1771144;80;21174;-61
2023/04/09 05:03:05;;;;;;;14.53;8.63;;;;;;;11.08;71.39;101263.94;1770867;81;21366;-61
2023/04/09 05:06:18;;;;;;;14.03;8.30;;;;;;;11.18;71.35;101263.86;1771524;80;21217;-60
2023/04/09 05:09:27;;;;;;;13.90;8.35;;;;;;;11.26;71.33;101273.48;1770136;80;21197;-60
2023/04/09 05:12:32;;;;;;;14.43;8.33;;;;;;;11.34;71.32;101270.81;1770154;80;21249;-58
2023/04/09 05:15:40;;;;;;;12.40;8.38;;;;;;;11.44;71.35;101268.84;1770021;81;21177;-58
2023/04/09 05:18:47;;;;;;;10.85;7.97;;;;;;;11.54;71.31;101273.73;1770054;80;21308;-57
2023/04/09 05:21:53;;;;;;;15.88;8.38;;;;;;;11.61;71.37;101268.81;1736500;82;21192;-57
2023/04/09 05:24:58;;;;;;;14.00;8.08;;;;;;;11.73;71.42;101279.05;1736764;82;21263;-59
2023/04/09 05:28:05;;;;;;;12.82;8.20;;;;;;;11.80;71.37;101280.97;1737169;82;21188;-58
2023/04/09 05:31:14;;;;;;;13.62;8.50;;;;;;;11.90;71.38;101280.86;1736428;82;21278;-59
2023/04/09 05:34:21;;;;;;;14.03;9.58;;;;;;;11.98;71.34;101283.16;1736657;82;21224;-58
2023/04/09 05:37:28;;;;;;;16.17;10.35;;;;;;;12.09;71.42;101284.74;1736918;82;21204;-59
2023/04/09 05:40:36;;;;;;;13.50;9.33;;;;;;;12.14;71.34;101285.12;1736872;82;21188;-58
2023/04/09 05:43:43;;;;;;;15.05;8.73;;;;;;;12.20;71.32;101289.07;1744045;79;21215;-58
2023/04/09 05:46:51;;;;;;;18.55;8.50;;;;;;;12.28;71.45;101286.37;1763819;79;21172;-60
2023/04/09 05:50:00;;;;;;;15.80;8.88;;;;;;;12.39;71.45;101296.55;1767201;80;21235;-59
2023/04/09 05:53:06;;;;;;;16.05;9.83;;;;;;;12.47;71.46;101292.47;1767300;81;21316;-59
2023/04/09 05:56:22;;;;;;;17.27;8.65;;;;;;;12.56;71.46;101306.56;1767561;81;21192;-58
2023/04/09 05:59:29;;;;;;;13.72;8.60;;;;;;;12.61;71.42;101301.94;1767653;81;21162;-59
2023/04/09 06:02:39;;;;;;;15.78;9.50;;;;;;;12.58;71.18;101306.41;1766925;81;21216;-57
2023/04/09 06:05:47;;;;;;;13.75;9.15;;;;;;;12.52;71.17;101305.20;1766715;81;21180;-57
2023/04/09 06:08:53;;;;;;;13.53;8.93;;;;;;;12.50;71.23;101309.98;1767030;80;21260;-57
2023/04/09 06:12:01;;;;;;;14.30;9.53;;;;;;;12.52;71.30;101309.31;1767220;81;21709;-58
2023/04/09 06:15:07;;;;;;;13.45;9.33;;;;;;;12.58;71.29;101318.26;1758565;79;21204;-58
2023/04/09 06:18:13;;;;;;;17.37;9.38;;;;;;;12.72;71.48;101310.75;1767558;81;21398;-58
2023/04/09 06:21:20;;;;;;;16.67;9.68;;;;;;;12.88;71.48;101311.30;1782394;78;21177;-57
2023/04/09 06:24:26;;;;;;;18.05;10.18;;;;;;;13.04;71.55;101309.49;1765487;81;21192;-58
2023/04/09 06:27:32;;;;;;;16.27;9.98;;;;;;;13.16;71.45;101313.62;1802367;79;21546;-58
2023/04/09 06:30:39;;;;;;;20.68;10.35;;;;;;;13.29;71.45;101316.73;1801763;79;21726;-60
2023/04/09 06:33:46;;;;;;;17.90;10.40;;;;;;;13.44;71.47;101316.42;1802507;79;21284;-60
2023/04/09 06:36:55;;;;;;;20.40;11.05;;;;;;;13.57;71.46;101321.41;1803120;79;21165;-58
2023/04/09 06:40:01;;;;;;;19.65;9.83;;;;;;;13.67;71.33;101314.34;1803196;79;21352;-59
2023/04/09 06:43:07;;;;;;;17.25;9.53;;;;;;;13.76;71.35;101318.80;1802440;79;21193;-58
2023/04/09 06:46:16;;;;;;;16.02;10.40;;;;;;;13.83;71.31;101321.19;1803775;79;21403;-58
2023/04/09 06:49:22;;;;;;;22.45;10.65;;;;;;;13.92;71.38;101325.13;1802342;79;21682;-58
2023/04/09 06:52:30;;;;;;;21.77;10.65;;;;;;;14.09;71.48;101324.09;1802907;79;21221;-59
2023/04/09 06:55:40;;;;;;;21.55;10.58;;;;;;;14.18;71.39;101331.28;1800869;79;21328;-58
2023/04/09 06:58:48;;;;;;;14.95;9.70;;;;;;;14.29;71.22;101325.94;1802300;78;21169;-58
2023/04/09 07:01:53;;;;;;;17.50;10.55;;;;;;;14.35;71.03;101332.14;1802202;79;21303;-58
2023/04/09 07:05:00;;;;;;;16.37;10.98;;;;;;;14.42;70.92;101331.25;1802092;79;21368;-59
2023/04/09 07:08:06;;;;;;;15.78;10.50;;;;;;;14.46;70.81;101342.78;1802932;79;21229;-59
2023/04/09 07:11:15;;;;;;;22.42;11.22;;;;;;;14.45;70.73;101340.53;1802875;79;21221;-59
2023/04/09 07:14:24;;;;;;;18.25;10.48;;;;;;;14.45;70.76;101342.42;1797231;79;21194;-60
2023/04/09 07:17:31;;;;;;;21.62;11.25;;;;;;;14.52;70.81;101346.20;1799024;79;21185;-58
2023/04/09 07:20:38;;;;;;;23.12;10.88;;;;;;;14.59;70.77;101348.56;1801909;79;21218;-58
2023/04/09 07:23:45;;;;;;;19.57;10.93;;;;;;;14.65;70.63;101358.36;1799212;79;21543;-58
2023/04/09 07:26:52;;;;;;;20.48;12.07;;;;;;;14.62;70.48;101361.48;1801642;79;21196;-58
2023/04/09 07:29:57;;;;;;;18.35;12.65;;;;;;;14.55;70.33;101366.51;1800228;79;21241;-59
2023/04/09 07:33:05;;;;;;;23.83;13.20;;;;;;;14.37;70.11;101360.35;1802001;79;21344;-58
2023/04/09 07:36:10;;;;;;;18.70;11.60;;;;;;;14.26;70.14;101357.47;1801413;79;21229;-59
2023/04/09 07:39:17;;;;;;;18.75;11.57;;;;;;;14.17;70.16;101361.25;1801990;79;21220;-59
2023/04/09 07:42:24;;;;;;;15.50;12.15;;;;;;;14.09;70.18;101360.39;1799091;78;21217;-58
2023/04/09 07:45:30;;;;;;;21.42;13.90;;;;;;;14.07;70.24;101359.19;1788349;79;21215;-59
2023/04/09 07:48:37;;;;;;;21.42;14.18;;;;;;;13.96;70.07;101362.30;1785561;79;21172;-59
2023/04/09 07:51:45;;;;;;;19.27;12.37;;;;;;;13.83;69.98;101370.73;1786663;79;21238;-59
2023/04/09 07:54:51;;;;;;;20.27;13.50;;;;;;;13.67;70.06;101371.59;1788368;78;21182;-59
2023/04/09 07:57:59;;;;;;;17.92;12.47;;;;;;;13.56;70.19;101366.97;1763435;81;21222;-60
2023/04/09 08:01:05;;;;;;;15.83;12.20;;;;;;;13.52;70.34;101364.53;1770919;80;21246;-59
2023/04/09 08:04:13;;;;;;;20.75;14.03;;;;;;;13.49;70.33;101363.50;1770442;81;21203;-59
2023/04/09 08:07:19;;;;;;;21.68;14.40;;;;;;;13.49;70.46;101368.17;1770795;80;21559;-59
2023/04/09 08:10:25;;;;;;;20.90;14.53;;;;;;;13.48;70.52;101371.42;1770876;80;21159;-58
2023/04/09 08:13:32;;;;;;;19.32;13.35;;;;;;;13.47;70.51;101372.47;1770919;80;21199;-57
2023/04/09 08:16:39;;;;;;;21.77;13.85;;;;;;;13.42;70.42;101373.48;1770926;79;21210;-58
2023/04/09 08:19:46;;;;;;;19.85;14.87;;;;;;;13.39;70.49;101375.20;1763859;80;21199;-58
2023/04/09 08:22:52;;;;;;;22.22;14.25;;;;;;;13.35;70.48;101378.47;1762436;80;21223;-57
2023/04/09 08:25:58;;;;;;;22.60;14.83;;;;;;;13.32;70.57;101379.65;1764689;80;21207;-57
2023/04/09 08:29:03;;;;;;;23.80;15.68;;;;;;;13.28;70.54;101382.41;1770961;80;21195;-58
2023/04/09 08:32:10;;;;;;;26.52;16.67;;;;;;;13.22;70.70;101378.09;1770943;80;21341;-57
2023/04/09 08:35:16;;;;;;;23.67;17.05;;;;;;;13.22;70.81;101375.34;1764339;81;21203;-59
2023/04/09 08:38:23;;;;;;;23.15;16.67;;;;;;;13.19;70.96;101375.14;1764921;80;21163;-57
2023/04/09 08:41:32;;;;;;;25.50;16.62;;;;;;;13.24;71.19;101383.76;1771157;80;21266;-58
2023/04/09 08:44:38;;;;;;;26.75;16.55;;;;;;;13.30;71.26;101373.45;1771218;80;21195;-56
2023/04/09 08:47:44;;;;;;;25.43;16.42;;;;;;;13.35;71.29;101366.09;1771283;80;21199;-57
2023/04/09 08:50:54;;;;;;;24.52;17.27;;;;;;;13.32;71.21;101371.40;1771518;80;21202;-59
2023/04/09 08:54:03;;;;;;;24.15;16.30;;;;;;;13.40;71.33;101372.78;1771105;81;21155;-57
2023/04/09 08:57:11;;;;;;;29.90;17.57;;;;;;;13.43;71.29;101368.31;1771106;81;21708;-57
2023/04/09 09:00:20;;;;;;;27.25;17.60;;;;;;;13.49;71.37;101369.55;1707329;82;21194;-58
2023/04/09 09:03:28;;;;;;;24.57;16.62;;;;;;;13.57;71.49;101366.80;1718090;83;21754;-58
2023/04/09 09:06:38;;;;;;;21.82;14.98;;;;;;;13.75;71.62;101372.98;1722062;82;21278;-56
2023/04/09 09:09:45;;;;;;;19.12;13.72;;;;;;;13.93;71.64;101372.80;1718335;83;21178;-57
2023/04/09 09:12:50;;;;;;;19.40;13.90;;;;;;;14.07;71.55;101378.97;1687194;83;21828;-58
2023/04/09 09:15:58;;;;;;;20.55;15.25;;;;;;;14.15;71.45;101377.08;1718791;83;21261;-57
2023/04/09 09:19:04;;;;;;;23.15;14.87;;;;;;;14.21;71.35;101374.12;1718668;83;21218;-60
2023/04/09 09:22:13;;;;;;;26.05;18.23;;;;;;;14.21;71.29;101383.77;1719000;82;21210;-59
2023/04/09 09:25:24;;;;;;;21.23;16.67;;;;;;;14.23;71.28;101381.70;1770462;80;21213;-60
2023/04/09 09:28:32;;;;;;;20.40;14.47;;;;;;;14.22;71.28;101384.97;1771466;79;21537;-60
2023/04/09 09:31:39;;;;;;;33.10;19.70;;;;;;;14.22;71.28;101381.38;1745504;80;21896;-60
2023/04/09 09:34:44;;;;;;;29.07;17.37;;;;;;;14.19;71.28;101367.95;1763701;81;21332;-60
2023/04/09 09:37:50;;;;;;;28.35;19.32;;;;;;;14.13;71.23;101380.52;1770946;80;21203;-59
2023/04/09 09:40:59;;;;;;;38.83;22.95;;;;;;;14.06;71.22;101382.27;1770124;81;21177;-60
2023/04/09 09:44:06;;;;;;;27.55;19.02;;;;;;;14.00;71.20;101381.56;1770649;81;21249;-60
2023/04/09 09:47:14;;;;;;;25.12;16.05;;;;;;;13.93;71.19;101381.05;1771263;80;21221;-61
2023/04/09 09:50:21;;;;;;;22.10;14.68;;;;;;;13.89;71.37;101386.58;1763844;80;21261;-60
2023/04/09 09:53:27;;;;;;;25.27;16.97;;;;;;;13.88;71.34;101382.95;1770644;80;21190;-61
2023/04/09 09:56:38;;;;;;;25.48;15.35;;;;;;;13.83;71.36;101382.61;1764565;80;21205;-60
2023/04/09 09:59:47;;;;;;;19.37;14.25;;;;;;;13.75;71.21;101391.41;1771906;80;21279;-67
2023/04/09 10:03:02;;;;;;;22.30;12.98;;;;;;;13.71;71.40;101381.75;1771478;80;21209;-67
2023/04/09 10:06:09;;;;;;;29.65;20.77;;;;;;;13.71;71.45;101381.75;1771197;80;21292;-65
2023/04/09 10:09:15;;;;;;;27.17;18.12;;;;;;;13.69;71.41;101386.56;1791787;79;21306;-68
2023/04/09 10:12:26;;;;;;;26.77;17.52;;;;;;;13.65;71.50;101384.69;1802464;79;21263;-65
2023/04/09 10:15:37;;;;;;;23.77;17.02;;;;;;;13.71;71.71;101394.14;1802837;79;21324;-66
2023/04/09 10:18:42;;;;;;;19.70;13.43;;;;;;;13.77;71.77;101386.06;1803310;79;21210;-66
2023/04/09 10:21:58;;;;;;;17.07;12.03;;;;;;;13.80;71.74;101385.70;1795495;79;21197;-65
2023/04/09 10:25:06;;;;;;;19.05;12.03;;;;;;;13.82;71.68;101389.16;1801360;79;21845;-66
2023/04/09 10:28:20;;;;;;;18.52;13.35;;;;;;;13.84;71.65;101384.86;1802265;79;21197;-66
2023/04/09 10:31:26;;;;;;;23.10;13.22;;;;;;;13.89;71.73;101383.29;1796079;78;21174;-65
2023/04/09 10:34:35;;;;;;;24.37;14.73;;;;;;;13.96;71.76;101385.70;1776563;79;21284;-65
2023/04/09 10:37:41;;;;;;;19.17;15.28;;;;;;;14.05;71.83;101385.20;1802052;79;21226;-66
2023/04/09 10:40:58;;;;;;;28.17;15.10;;;;;;;14.08;71.69;101373.83;1780006;79;21294;-67
2023/04/09 10:44:04;;;;;;;15.88;11.85;;;;;;;14.12;71.74;101382.06;1795600;79;21268;-67
2023/04/09 10:47:12;;;;;;;17.05;12.73;;;;;;;14.22;71.83;101383.59;1802335;79;21213;-66
2023/04/09 10:50:29;;;;;;;17.07;12.65;;;;;;;14.33;71.84;101378.28;1802010;79;21181;-68
2023/04/09 10:53:35;;;;;;;27.42;13.25;;;;;;;14.45;71.88;101378.23;1816538;78;21774;-65
2023/04/09 10:56:42;;;;;;;14.60;10.80;;;;;;;14.63;71.91;101383.89;1802112;79;21181;-66
2023/04/09 10:59:54;;;;;;;16.42;12.45;;;;;;;14.87;72.04;101376.03;1801990;79;21698;-66
2023/04/09 11:03:14;;;;;;;19.15;12.18;;;;;;;15.17;71.96;101374.31;1802227;79;21201;-66
2023/04/09 11:06:23;;;;;;;18.12;10.85;;;;;;;15.48;71.95;101374.66;1786858;78;21792;-67
2023/04/09 11:09:31;;;;;;;14.43;8.88;;;;;;;15.87;71.87;101376.75;1769565;79;21213;-65
2023/04/09 11:12:38;;;;;;;18.52;9.03;;;;;;;16.21;71.64;101368.84;1769732;80;21252;-63
2023/04/09 11:15:43;;;;;;;13.30;9.23;;;;;;;16.47;71.36;101362.90;1770339;80;21638;-66
2023/04/09 11:18:52;;;;;;;18.87;9.45;;;;;;;16.61;70.99;101369.46;1769964;80;21185;-64
2023/04/09 11:21:58;;;;;;;12.88;8.58;;;;;;;16.68;70.73;101359.37;1762197;81;21268;-66
2023/04/09 11:25:07;;;;;;;11.57;8.35;;;;;;;16.76;70.59;101363.42;1769977;80;21169;-66
2023/04/09 11:28:13;;;;;;;15.28;8.38;;;;;;;16.82;70.56;101353.83;1779830;79;21522;-67
2023/04/09 11:31:20;;;;;;;11.63;8.20;;;;;;;16.92;70.51;101355.75;1770354;80;21185;-65
2023/04/09 11:34:28;;;;;;;10.28;8.20;;;;;;;16.97;70.36;101359.31;1770658;79;21260;-67
2023/04/09 11:37:36;;;;;;;13.62;9.35;;;;;;;16.99;70.14;101351.69;1771222;79;21237;-70
2023/04/09 11:40:50;;;;;;;16.97;8.83;;;;;;;16.98;70.11;101350.81;1769914;81;21630;-66
2023/04/09 11:43:52;;;;;;;10.63;8.00;;;;;;;16.90;69.97;101352.34;1770294;81;21212;-66
2023/04/09 11:47:01;;;;;;;11.08;7.65;;;;;;;17.00;70.06;101351.48;1770903;81;21272;-64
2023/04/09 11:50:08;;;;;;;11.48;7.80;;;;;;;17.09;69.93;101342.56;1769847;81;21233;-64
2023/04/09 11:53:29;;;;;;;10.15;7.85;;;;;;;17.07;69.72;101339.13;1770237;80;21256;-68
2023/04/09 11:56:37;;;;;;;12.35;7.85;;;;;;;16.99;69.37;101336.47;1769217;79;21535;-68
2023/04/09 11:59:45;;;;;;;12.35;7.47;;;;;;;16.92;69.44;101326.70;1769600;79;21276;-64
2023/04/09 12:02:54;;;;;;;11.80;7.90;;;;;;;16.96;69.60;101331.33;1770485;80;21260;-66
2023/04/09 12:06:00;;;;;;;10.20;7.62;;;;;;;17.04;69.64;101333.98;1770658;81;21837;-65
2023/04/09 12:09:05;;;;;;;11.85;7.03;;;;;;;17.19;69.77;101323.71;1766600;79;21755;-66
2023/04/09 12:12:14;;;;;;;10.72;6.87;;;;;;;17.27;69.68;101326.36;1800433;79;21189;-66
2023/04/09 12:15:29;;;;;;;11.10;6.40;;;;;;;17.30;69.49;101321.84;1795128;79;21189;-64
2023/04/09 12:18:34;;;;;;;8.90;7.00;;;;;;;17.31;69.11;101324.94;1801523;79;21185;-67
2023/04/09 12:22:01;;;;;;;10.65;7.00;;;;;;;17.27;69.03;101322.20;1794155;79;21343;-66
2023/04/09 12:25:08;;;;;;;8.75;6.80;;;;;;;17.35;69.25;101317.42;1735142;81;21208;-66
2023/04/09 12:28:16;;;;;;;9.48;6.42;;;;;;;17.60;69.49;101326.23;1736240;80;21204;-70
2023/04/09 12:31:24;;;;;;;13.22;6.90;;;;;;;17.66;69.18;101320.73;1779925;79;21734;-65
2023/04/09 12:34:30;;;;;;;9.73;5.58;;;;;;;17.72;69.02;101324.12;1784234;80;21249;-67
2023/04/09 12:37:38;;;;;;;10.58;5.85;;;;;;;17.84;68.94;101321.13;1773093;80;21250;-63
2023/04/09 12:40:46;;;;;;;8.38;5.55;;;;;;;18.02;68.95;101322.02;1772954;80;21221;-69
2023/04/09 12:43:52;;;;;;;8.90;5.70;;;;;;;18.07;68.54;101324.17;1772669;80;21182;-64
2023/04/09 12:46:58;;;;;;;7.78;5.92;;;;;;;17.78;67.84;101331.63;1772921;80;21205;-60
2023/04/09 12:50:05;;;;;;;11.22;7.15;;;;;;;17.58;67.87;101328.34;1773001;80;21208;-64
2023/04/09 12:53:11;;;;;;;10.68;7.90;;;;;;;17.27;67.54;101330.00;1774731;79;21721;-63
2023/04/09 12:56:19;;;;;;;10.65;8.25;;;;;;;16.90;67.38;101332.98;1793339;79;21180;-64
2023/04/09 12:59:26;;;;;;;10.78;8.20;;;;;;;16.50;67.43;101339.02;1802568;79;21185;-64
2023/04/09 13:02:27;;;;;;;17.05;8.53;;;;;;;16.27;67.63;101345.97;1804103;79;21721;-65
2023/04/09 13:05:35;;;;;;;16.35;9.25;;;;;;;16.10;67.82;101344.44;1804722;78;21170;-65
2023/04/09 13:08:41;;;;;;;11.83;8.35;;;;;;;15.96;68.01;101338.37;1804388;79;21252;-67
2023/04/09 13:11:48;;;;;;;12.85;8.40;;;;;;;15.90;68.23;101339.63;1803794;79;21347;-65
2023/04/09 13:14:55;;;;;;;16.40;9.73;;;;;;;15.83;68.30;101342.28;1803197;79;21743;-65
2023/04/09 13:18:01;;;;;;;15.40;10.28;;;;;;;15.65;68.16;101340.36;1802824;78;21272;-66
2023/04/09 13:21:08;;;;;;;17.15;10.45;;;;;;;15.51;68.35;101346.69;1802427;79;21205;-65
2023/04/09 13:24:13;;;;;;;18.32;12.05;;;;;;;15.39;68.35;101345.92;1786847;79;21719;-64
2023/04/09 13:27:20;;;;;;;13.48;10.82;;;;;;;15.21;68.34;101345.31;1799040;78;21225;-64
2023/04/09 13:30:29;;;;;;;16.65;12.18;;;;;;;15.04;68.42;101347.33;1797233;79;21256;-65
2023/04/09 13:33:35;;;;;;;14.10;11.20;;;;;;;14.89;68.39;101347.23;1801819;79;21189;-62
2023/04/09 13:36:40;;;;;;;15.30;13.05;;;;;;;14.75;68.45;101347.12;1802692;79;21268;-63
2023/04/09 13:39:46;;;;;;;16.67;13.38;;;;;;;14.53;68.21;101357.55;1801787;79;21237;-64
2023/04/09 13:42:53;;;;;;;21.00;14.68;;;;;;;14.25;68.16;101353.52;1802051;79;21212;-63
2023/04/09 13:46:03;;;;;;;18.23;14.00;;;;;;;14.04;68.33;101351.80;1793243;79;21257;-62
2023/04/09 13:49:09;;;;;;;23.42;16.23;;;;;;;13.88;68.42;101355.94;1801349;79;21170;-64
2023/04/09 13:52:16;;;;;;;20.57;16.73;;;;;;;13.74;68.62;101353.88;1785883;79;21186;-64
2023/04/09 13:55:25;;;;;;;22.60;16.50;;;;;;;13.60;68.76;101349.95;1771101;80;21233;-65
2023/04/09 13:58:31;;;;;;;26.73;20.92;;;;;;;13.56;68.87;101349.09;1770194;80;21205;-64
2023/04/09 14:01:39;;;;;;;18.35;15.65;;;;;;;13.47;68.96;101343.58;1770693;80;21233;-64
2023/04/09 14:04:48;;;;;;;18.30;15.03;;;;;;;13.35;68.92;101349.05;1769836;80;21217;-63
2023/04/09 14:07:56;;;;;;;18.95;15.70;;;;;;;13.21;68.98;101341.98;1770131;80;21225;-63
2023/04/09 14:11:03;;;;;;;24.10;17.62;;;;;;;13.16;69.09;101356.78;1785048;79;21255;-63
2023/04/09 14:14:10;;;;;;;23.35;18.23;;;;;;;13.06;69.16;101345.93;1801619;78;21201;-64
2023/04/09 14:17:17;;;;;;;22.93;17.77;;;;;;;12.98;69.31;101352.75;1790837;79;21232;-63
2023/04/09 14:20:28;;;;;;;22.98;18.02;;;;;;;12.94;69.39;101346.34;1772670;79;21189;-64